Time;durP1;ratioP1;P1;durP2;ratioP2;P2;SDS_P1;SDS_P2;PMS_P1;PMS_P2;Temp;Humidity;BMP_temperature;BMP_pressure;BME280_temperature;BME280_humidity;BME280_pressure;Samples;Min_cycle;Max_cycle;Signal;HPM_P1;HPM_P2
2021/01/18 00:02:55;;;;;;;55.60;28.38;;;22.30;22.90;;;;;;6097087;28;83360;-63
2021/01/18 00:05:55;;;;;;;57.75;28.98;;;22.30;22.90;;;;;;6098153;28;83418;-62
2021/01/18 00:08:56;;;;;;;56.55;28.40;;;22.30;23.20;;;;;;6100116;28;86415;-62
2021/01/18 00:11:56;;;;;;;52.47;27.80;;;22.30;23.10;;;;;;6103215;28;85176;-62
2021/01/18 00:14:57;;;;;;;49.25;25.77;;;22.30;23.10;;;;;;6102568;28;83432;-62
2021/01/18 00:17:57;;;;;;;45.33;24.42;;;22.30;23.10;;;;;;6101975;28;83960;-62
2021/01/18 00:20:58;;;;;;;46.88;25.65;;;22.30;23.40;;;;;;6097670;28;83345;-61
2021/01/18 00:23:58;;;;;;;47.92;24.98;;;22.30;23.60;;;;;;6100834;28;84805;-62
2021/01/18 00:26:59;;;;;;;45.85;24.60;;;22.30;23.40;;;;;;6103657;28;82991;-61
2021/01/18 00:29:59;;;;;;;47.78;25.05;;;22.30;23.40;;;;;;6101803;28;83211;-62
2021/01/18 00:33:00;;;;;;;46.38;25.50;;;22.30;23.70;;;;;;6102612;28;83798;-62
2021/01/18 00:36:00;;;;;;;51.35;25.17;;;22.30;23.50;;;;;;6102279;28;83761;-62
2021/01/18 00:39:01;;;;;;;48.47;26.13;;;22.20;23.80;;;;;;6101150;28;82793;-62
2021/01/18 00:42:01;;;;;;;50.80;25.73;;;22.30;23.50;;;;;;6101663;28;84366;-61
2021/01/18 00:45:02;;;;;;;45.00;24.70;;;22.20;23.50;;;;;;6101751;28;83053;-62
2021/01/18 00:48:03;;;;;;;44.38;23.70;;;22.30;23.70;;;;;;6102865;28;83586;-62
2021/01/18 00:51:04;;;;;;;47.80;24.77;;;22.20;23.80;;;;;;6087285;28;84996;-62
2021/01/18 00:54:04;;;;;;;53.65;26.65;;;22.20;23.40;;;;;;6099096;28;83163;-62
2021/01/18 00:57:09;;;;;;;49.00;24.63;;;22.20;23.40;;;;;;6118887;28;84053;-62
2021/01/18 01:00:14;;;;;;;53.00;26.85;;;22.20;23.50;;;;;;6113413;28;84610;-60
2021/01/18 01:03:16;;;;;;;54.20;26.67;;;22.20;23.50;;;;;;6107906;28;86224;-62
2021/01/18 01:06:16;;;;;;;48.72;25.83;;;22.20;23.40;;;;;;6101480;28;83099;-62
2021/01/18 01:09:17;;;;;;;57.22;28.83;;;22.20;23.30;;;;;;6100982;28;83829;-61
2021/01/18 01:12:17;;;;;;;57.67;28.67;;;22.20;23.20;;;;;;6100962;28;83874;-61
2021/01/18 01:15:18;;;;;;;52.28;27.05;;;22.20;23.10;;;;;;6099103;28;83487;-63
2021/01/18 01:18:18;;;;;;;59.20;28.65;;;22.20;23.30;;;;;;6102509;28;83308;-62
2021/01/18 01:21:19;;;;;;;59.92;29.00;;;22.20;23.40;;;;;;6101339;28;83401;-62
2021/01/18 01:24:20;;;;;;;60.92;31.23;;;22.20;23.20;;;;;;6100755;28;83079;-62
2021/01/18 01:27:21;;;;;;;62.50;30.63;;;22.20;23.10;;;;;;6100088;28;84071;-62
2021/01/18 01:30:21;;;;;;;68.63;33.35;;;22.20;23.10;;;;;;6101541;28;82976;-62
2021/01/18 01:33:22;;;;;;;68.47;32.45;;;22.20;23.10;;;;;;6101236;28;85257;-62
2021/01/18 01:36:22;;;;;;;68.18;33.47;;;22.20;23.10;;;;;;6098119;28;83281;-61
2021/01/18 01:39:23;;;;;;;69.28;33.55;;;22.20;22.90;;;;;;6095751;28;83672;-62
2021/01/18 01:42:23;;;;;;;75.32;37.70;;;22.20;23.00;;;;;;6098686;28;83418;-62
2021/01/18 01:45:24;;;;;;;74.63;37.00;;;22.10;22.80;;;;;;6100960;28;84728;-61
2021/01/18 01:48:26;;;;;;;76.65;35.83;;;22.10;22.70;;;;;;6102082;28;84126;-62
2021/01/18 01:51:26;;;;;;;71.47;35.53;;;22.10;22.80;;;;;;6092984;28;84136;-61
2021/01/18 01:54:27;;;;;;;75.30;36.97;;;22.10;22.80;;;;;;6102730;28;83787;-61
2021/01/18 01:57:27;;;;;;;69.80;35.40;;;22.10;23.00;;;;;;6092855;28;84815;-61
2021/01/18 02:00:37;;;;;;;67.78;34.42;;;22.10;22.90;;;;;;6092793;28;83771;-61
2021/01/18 02:03:38;;;;;;;67.28;34.25;;;22.10;23.00;;;;;;6091103;28;84572;-62
2021/01/18 02:06:38;;;;;;;67.85;35.35;;;22.10;22.70;;;;;;6094216;28;83428;-62
2021/01/18 02:09:39;;;;;;;74.95;37.08;;;22.10;22.30;;;;;;6100256;28;84003;-62
2021/01/18 02:12:39;;;;;;;80.00;38.58;;;22.20;22.50;;;;;;6102805;28;83632;-62
2021/01/18 02:15:40;;;;;;;71.90;36.30;;;22.10;22.30;;;;;;6092532;28;83427;-62
2021/01/18 02:18:40;;;;;;;76.78;37.05;;;22.10;22.10;;;;;;6078617;28;83054;-62
2021/01/18 02:21:41;;;;;;;74.47;37.28;;;22.10;21.90;;;;;;6091079;28;82983;-62
2021/01/18 02:24:41;;;;;;;71.60;36.22;;;22.20;22.20;;;;;;6094428;28;84765;-62
2021/01/18 02:27:42;;;;;;;75.18;36.38;;;22.10;22.00;;;;;;6096965;28;83726;-62
2021/01/18 02:30:42;;;;;;;77.68;37.65;;;22.10;22.00;;;;;;6101020;28;82986;-62
2021/01/18 02:33:43;;;;;;;74.18;35.58;;;22.10;21.90;;;;;;6100579;28;83501;-62
2021/01/18 02:36:44;;;;;;;75.15;37.45;;;22.20;21.80;;;;;;6091133;28;83243;-62
2021/01/18 02:39:44;;;;;;;78.00;38.75;;;22.10;21.60;;;;;;6097670;28;83126;-61
2021/01/18 02:42:45;;;;;;;74.07;37.20;;;22.10;21.60;;;;;;6094474;28;83204;-61
2021/01/18 02:45:45;;;;;;;74.40;37.55;;;22.10;21.60;;;;;;6091213;28;83524;-61
2021/01/18 02:48:46;;;;;;;75.97;37.30;;;22.10;21.80;;;;;;6100471;28;83302;-61
2021/01/18 02:51:46;;;;;;;70.03;36.75;;;22.10;21.80;;;;;;6092520;28;82920;-62
2021/01/18 02:54:47;;;;;;;71.03;37.20;;;22.10;21.60;;;;;;6096891;28;83492;-61
2021/01/18 02:57:48;;;;;;;76.03;37.28;;;22.10;21.70;;;;;;6100528;28;82973;-62
2021/01/18 03:00:49;;;;;;;79.90;38.42;;;22.10;21.70;;;;;;6101093;28;84312;-61
2021/01/18 03:03:49;;;;;;;76.00;36.30;;;22.10;22.20;;;;;;6092356;28;83951;-62
2021/01/18 03:06:50;;;;;;;76.38;36.67;;;22.10;22.30;;;;;;6098296;28;83457;-62
2021/01/18 03:09:50;;;;;;;77.65;38.40;;;22.10;22.00;;;;;;6099051;28;83238;-61
2021/01/18 03:12:51;;;;;;;73.32;36.95;;;22.10;22.30;;;;;;6097500;28;83169;-62
2021/01/18 03:15:51;;;;;;;74.88;36.65;;;22.10;21.90;;;;;;6091205;28;91948;-61
2021/01/18 03:18:52;;;;;;;75.03;36.38;;;22.10;22.00;;;;;;6098975;28;83656;-61
2021/01/18 03:21:52;;;;;;;68.40;33.70;;;22.10;22.40;;;;;;6097861;28;83384;-62
2021/01/18 03:24:53;;;;;;;71.07;34.70;;;22.10;22.40;;;;;;6096697;28;83347;-62
2021/01/18 03:27:54;;;;;;;70.00;35.15;;;22.10;22.10;;;;;;6095288;28;83582;-62
2021/01/18 03:30:54;;;;;;;74.85;36.15;;;22.10;22.00;;;;;;6095581;28;83726;-61
2021/01/18 03:33:55;;;;;;;70.60;34.50;;;22.10;22.20;;;;;;6088120;28;84084;-62
2021/01/18 03:36:55;;;;;;;69.72;35.28;;;22.10;22.10;;;;;;6098571;28;83884;-61
2021/01/18 03:39:56;;;;;;;73.68;37.55;;;22.10;22.00;;;;;;6099996;28;82932;-62
2021/01/18 03:42:56;;;;;;;74.28;36.00;;;22.10;21.90;;;;;;6099104;28;82749;-62
2021/01/18 03:45:57;;;;;;;74.57;36.55;;;22.10;22.00;;;;;;6098420;28;83390;-62
2021/01/18 03:48:58;;;;;;;66.10;34.60;;;22.10;21.80;;;;;;6100183;28;82980;-62
2021/01/18 03:51:58;;;;;;;75.30;35.55;;;22.10;21.90;;;;;;6090951;28;83756;-62
2021/01/18 03:54:59;;;;;;;69.93;34.92;;;22.10;22.10;;;;;;6097364;28;83672;-62
2021/01/18 03:57:59;;;;;;;69.03;33.85;;;22.10;22.10;;;;;;6091096;28;83069;-61
2021/01/18 04:01:00;;;;;;;70.32;35.03;;;22.10;22.20;;;;;;6090492;28;83476;-62
2021/01/18 04:04:00;;;;;;;69.75;35.50;;;22.00;22.30;;;;;;6099220;28;82954;-62
2021/01/18 04:07:01;;;;;;;68.20;34.33;;;22.10;22.10;;;;;;6088650;28;83675;-62
2021/01/18 04:10:01;;;;;;;67.70;33.58;;;22.10;22.30;;;;;;6097439;28;84951;-62
2021/01/18 04:13:02;;;;;;;69.38;34.20;;;22.00;22.40;;;;;;6090544;28;83606;-61
2021/01/18 04:16:02;;;;;;;66.60;33.22;;;22.00;22.20;;;;;;6085936;28;83131;-62
2021/01/18 04:19:03;;;;;;;65.68;33.38;;;22.00;22.30;;;;;;6098764;28;83229;-61
2021/01/18 04:22:03;;;;;;;64.43;31.92;;;22.00;22.10;;;;;;6091325;28;83426;-61
2021/01/18 04:25:04;;;;;;;68.57;32.45;;;22.00;22.30;;;;;;6097967;28;83311;-62
2021/01/18 04:28:04;;;;;;;65.47;32.25;;;22.00;22.40;;;;;;6082365;28;82998;-62
2021/01/18 04:31:05;;;;;;;62.25;31.27;;;22.00;22.40;;;;;;6095457;28;84156;-61
2021/01/18 04:34:05;;;;;;;61.50;30.63;;;22.00;22.30;;;;;;6113796;28;86329;-61
2021/01/18 04:37:06;;;;;;;60.72;30.73;;;22.00;22.40;;;;;;6097102;28;83100;-61
2021/01/18 04:40:06;;;;;;;60.10;30.70;;;22.00;22.40;;;;;;6098856;28;86642;-62
2021/01/18 04:43:07;;;;;;;60.65;30.35;;;22.00;22.20;;;;;;6095815;28;84694;-62
2021/01/18 04:46:07;;;;;;;60.17;29.27;;;22.00;22.50;;;;;;6090745;28;82946;-62
2021/01/18 04:49:08;;;;;;;59.60;29.48;;;22.00;22.30;;;;;;6093936;28;83479;-61
2021/01/18 04:52:08;;;;;;;55.25;28.67;;;22.00;22.50;;;;;;6092685;28;83372;-61
2021/01/18 04:55:09;;;;;;;59.67;29.90;;;22.00;22.20;;;;;;6097247;28;83395;-60
2021/01/18 04:58:10;;;;;;;56.60;28.17;;;22.00;22.30;;;;;;6096202;28;83284;-61
2021/01/18 05:01:11;;;;;;;54.58;26.95;;;22.00;22.30;;;;;;6095156;28;83040;-61
2021/01/18 05:04:11;;;;;;;55.10;29.10;;;22.00;22.30;;;;;;6101000;28;83034;-62
2021/01/18 05:07:12;;;;;;;51.30;28.48;;;22.00;22.20;;;;;;6089170;28;83783;-62
2021/01/18 05:10:12;;;;;;;51.78;26.42;;;22.00;22.60;;;;;;6085063;28;83001;-61
2021/01/18 05:13:13;;;;;;;54.33;26.98;;;22.00;22.60;;;;;;6098684;28;83887;-62
2021/01/18 05:16:13;;;;;;;51.22;27.08;;;22.00;22.80;;;;;;6090054;28;85829;-61
2021/01/18 05:19:14;;;;;;;47.92;26.20;;;22.00;22.40;;;;;;6103240;28;84121;-68
2021/01/18 05:22:15;;;;;;;47.70;26.30;;;22.00;22.30;;;;;;6100399;28;84328;-65
2021/01/18 05:25:16;;;;;;;52.67;27.52;;;22.10;22.30;;;;;;6099700;28;83674;-60
2021/01/18 05:28:17;;;;;;;53.13;26.35;;;22.10;22.30;;;;;;6099209;28;88088;-62
2021/01/18 05:31:17;;;;;;;49.67;25.35;;;22.20;22.60;;;;;;6102841;28;90019;-62
2021/01/18 05:34:18;;;;;;;48.92;25.02;;;22.10;22.70;;;;;;6101057;28;83654;-61
2021/01/18 05:37:18;;;;;;;54.08;27.52;;;22.10;22.90;;;;;;6100677;28;83308;-61
2021/01/18 05:40:19;;;;;;;53.45;27.55;;;22.20;22.50;;;;;;6098413;28;84064;-61
2021/01/18 05:43:20;;;;;;;57.35;28.45;;;22.10;22.40;;;;;;6101297;28;84655;-62
2021/01/18 05:46:20;;;;;;;51.47;26.95;;;22.10;22.60;;;;;;6101903;28;83278;-62
2021/01/18 05:49:21;;;;;;;50.97;27.10;;;22.20;22.50;;;;;;6100986;28;83145;-61
2021/01/18 05:52:21;;;;;;;47.72;23.63;;;22.30;22.70;;;;;;6101719;28;84821;-61
2021/01/18 05:55:22;;;;;;;46.13;24.55;;;22.30;26.80;;;;;;6101944;28;83281;-61
2021/01/18 05:58:22;;;;;;;53.05;25.52;;;22.20;25.20;;;;;;6098454;28;83326;-61
2021/01/18 06:01:23;;;;;;;52.85;26.48;;;22.20;24.40;;;;;;6101189;28;83583;-64
2021/01/18 06:04:23;;;;;;;55.60;27.33;;;22.30;24.00;;;;;;6092284;28;86574;-60
2021/01/18 06:07:24;;;;;;;47.75;24.08;;;22.30;23.70;;;;;;6099541;28;83619;-61
2021/01/18 06:10:25;;;;;;;43.67;21.58;;;22.40;24.90;;;;;;6097766;28;83566;-61
2021/01/18 06:13:25;;;;;;;40.30;19.23;;;22.40;25.80;;;;;;6097370;28;84435;-61
2021/01/18 06:16:26;;;;;;;39.05;19.33;;;22.40;26.60;;;;;;6097478;28;84966;-61
2021/01/18 06:19:26;;;;;;;39.05;17.88;;;22.40;27.30;;;;;;6100296;28;83257;-61
2021/01/18 06:22:27;;;;;;;37.08;17.05;;;22.40;27.70;;;;;;6103218;28;87262;-62
2021/01/18 06:25:27;;;;;;;36.33;17.45;;;22.40;27.70;;;;;;6102035;28;83148;-62
2021/01/18 06:28:28;;;;;;;33.10;16.52;;;22.40;28.00;;;;;;6099023;28;83384;-61
2021/01/18 06:31:28;;;;;;;31.15;16.95;;;22.50;28.30;;;;;;6096589;28;83692;-63
2021/01/18 06:34:29;;;;;;;35.58;16.88;;;22.40;28.30;;;;;;6100603;28;83482;-63
2021/01/18 06:37:29;;;;;;;30.55;16.17;;;22.40;29.00;;;;;;6099546;28;83268;-63
2021/01/18 06:40:30;;;;;;;31.88;16.50;;;22.50;29.00;;;;;;6101174;28;82955;-64
2021/01/18 06:43:31;;;;;;;34.17;16.23;;;22.40;29.00;;;;;;6098772;28;86039;-64
2021/01/18 06:46:31;;;;;;;31.90;15.63;;;22.40;29.50;;;;;;6100043;28;84054;-63
2021/01/18 06:49:32;;;;;;;32.35;15.32;;;22.40;28.90;;;;;;6099375;28;84450;-62
2021/01/18 06:52:32;;;;;;;29.92;15.27;;;22.40;29.10;;;;;;6093158;28;83397;-63
2021/01/18 06:55:33;;;;;;;28.70;15.75;;;22.50;29.60;;;;;;6083222;28;83426;-70
2021/01/18 06:58:34;;;;;;;30.83;15.48;;;22.40;29.30;;;;;;6097106;28;83369;-63
2021/01/18 07:01:35;;;;;;;28.52;15.27;;;22.40;29.40;;;;;;6090792;28;84282;-63
2021/01/18 07:04:36;;;;;;;32.72;15.68;;;22.50;29.20;;;;;;6088048;28;84725;-64
2021/01/18 07:07:36;;;;;;;29.02;15.52;;;22.50;29.50;;;;;;6095413;28;83370;-63
2021/01/18 07:10:37;;;;;;;28.13;14.60;;;22.50;29.70;;;;;;6092628;28;83968;-62
2021/01/18 07:13:37;;;;;;;29.85;14.95;;;22.50;29.60;;;;;;6096895;28;83500;-63
2021/01/18 07:16:38;;;;;;;27.15;13.75;;;22.40;29.40;;;;;;6091002;28;83689;-62
2021/01/18 07:19:38;;;;;;;29.10;14.52;;;22.40;29.30;;;;;;6094786;28;83118;-62
2021/01/18 07:22:39;;;;;;;34.30;15.73;;;22.40;28.90;;;;;;6098907;28;84423;-67
2021/01/18 07:25:39;;;;;;;27.58;15.40;;;22.40;28.90;;;;;;6085108;28;83209;-67
2021/01/18 07:28:40;;;;;;;29.42;14.98;;;22.40;28.70;;;;;;6098448;28;86841;-62
2021/01/18 07:31:40;;;;;;;28.27;14.10;;;22.40;28.70;;;;;;6082930;28;83475;-62
2021/01/18 07:34:41;;;;;;;33.67;15.77;;;22.50;28.70;;;;;;6099221;28;83137;-61
2021/01/18 07:37:41;;;;;;;29.70;14.82;;;22.50;28.40;;;;;;6089443;28;83502;-61
2021/01/18 07:40:42;;;;;;;26.77;14.32;;;22.50;27.80;;;;;;6091873;28;83393;-61
2021/01/18 07:43:42;;;;;;;29.02;13.35;;;22.50;27.80;;;;;;6099331;28;83577;-63
2021/01/18 07:46:43;;;;;;;31.00;14.07;;;22.60;27.30;;;;;;6086843;28;83666;-67
2021/01/18 07:49:44;;;;;;;31.33;14.13;;;22.60;26.90;;;;;;6071187;28;83361;-62
2021/01/18 07:52:44;;;;;;;31.88;15.82;;;22.70;26.60;;;;;;6089123;28;83434;-63
2021/01/18 07:55:45;;;;;;;27.52;13.68;;;22.70;26.50;;;;;;6099384;28;83273;-63
2021/01/18 07:58:45;;;;;;;27.73;13.63;;;22.70;26.40;;;;;;6093669;28;84099;-62
2021/01/18 08:01:46;;;;;;;28.83;14.18;;;22.80;26.20;;;;;;6090483;28;90347;-63
2021/01/18 08:04:48;;;;;;;28.23;14.52;;;22.80;25.90;;;;;;6092130;28;82932;-64
2021/01/18 08:07:48;;;;;;;37.47;14.55;;;22.80;25.60;;;;;;6096988;28;84016;-64
2021/01/18 08:10:49;;;;;;;28.52;14.20;;;22.80;25.40;;;;;;6083372;28;84489;-64
2021/01/18 08:13:50;;;;;;;30.17;14.23;;;22.90;25.50;;;;;;6089339;28;84354;-63
2021/01/18 08:16:51;;;;;;;27.23;13.07;;;22.90;25.60;;;;;;6087096;28;83467;-63
2021/01/18 08:19:51;;;;;;;28.40;13.73;;;23.00;25.50;;;;;;6097371;28;83255;-63
2021/01/18 08:22:53;;;;;;;29.05;14.45;;;23.10;26.20;;;;;;6093661;28;83213;-63
2021/01/18 08:25:53;;;;;;;23.27;12.30;;;23.10;26.10;;;;;;6096407;28;84041;-63
2021/01/18 08:28:54;;;;;;;23.20;12.57;;;23.20;26.00;;;;;;6096706;28;86924;-64
2021/01/18 08:31:54;;;;;;;23.48;11.77;;;23.20;25.80;;;;;;6096266;28;84163;-63
2021/01/18 08:34:55;;;;;;;24.58;12.77;;;23.20;25.70;;;;;;6100587;28;83774;-63
2021/01/18 08:37:56;;;;;;;24.92;13.38;;;23.30;25.60;;;;;;6097156;28;83214;-63
2021/01/18 08:40:56;;;;;;;25.30;13.27;;;23.30;25.60;;;;;;6100253;28;83662;-63
2021/01/18 08:44:03;;;;;;;25.25;14.38;;;23.40;26.10;;;;;;6092052;28;86034;-63
2021/01/18 08:47:03;;;;;;;23.88;12.45;;;23.40;26.60;;;;;;6095909;28;83868;-63
2021/01/18 08:50:04;;;;;;;23.92;12.57;;;23.50;26.30;;;;;;6090960;28;86393;-63
2021/01/18 08:53:04;;;;;;;25.38;12.85;;;23.50;26.30;;;;;;6094457;28;83637;-63
2021/01/18 08:56:05;;;;;;;25.02;12.93;;;23.60;26.20;;;;;;6097992;28;83832;-63
2021/01/18 08:59:05;;;;;;;21.98;12.88;;;23.60;26.20;;;;;;6102888;28;83225;-63
2021/01/18 09:02:06;;;;;;;24.98;12.35;;;23.70;26.20;;;;;;6094026;28;83894;-63
2021/01/18 09:05:07;;;;;;;25.05;13.02;;;23.70;26.20;;;;;;6100694;28;83361;-63
2021/01/18 09:08:08;;;;;;;21.50;12.23;;;23.80;26.10;;;;;;6099958;28;82816;-63
2021/01/18 09:11:08;;;;;;;20.55;11.90;;;23.80;26.10;;;;;;6100402;28;83698;-64
2021/01/18 09:14:09;;;;;;;26.33;12.05;;;23.90;26.60;;;;;;6097133;28;83266;-64
2021/01/18 09:17:09;;;;;;;23.70;13.07;;;23.90;26.10;;;;;;6101461;28;83321;-63
2021/01/18 09:20:10;;;;;;;22.17;12.00;;;24.00;26.10;;;;;;6092115;28;84414;-67
2021/01/18 09:23:10;;;;;;;20.35;10.70;;;24.00;26.20;;;;;;6102572;28;85772;-65
2021/01/18 09:26:11;;;;;;;19.55;11.57;;;24.00;26.10;;;;;;6093820;28;84638;-63
2021/01/18 09:29:12;;;;;;;22.58;12.13;;;24.10;26.10;;;;;;6102471;28;84253;-64
2021/01/18 09:32:12;;;;;;;24.65;12.18;;;24.10;26.10;;;;;;6102410;28;84336;-63
2021/01/18 09:35:14;;;;;;;23.00;12.93;;;24.10;26.10;;;;;;6095770;28;85003;-63
2021/01/18 09:38:14;;;;;;;24.30;11.73;;;24.10;26.00;;;;;;6092265;28;83317;-64
2021/01/18 09:41:15;;;;;;;20.60;11.52;;;24.20;25.60;;;;;;6089936;28;83333;-62
2021/01/18 09:44:16;;;;;;;21.27;11.02;;;24.20;25.50;;;;;;6099757;28;85341;-64
2021/01/18 09:47:16;;;;;;;17.88;10.70;;;24.30;25.40;;;;;;6091267;28;84097;-63
2021/01/18 09:50:17;;;;;;;17.85;10.57;;;24.40;25.20;;;;;;6098927;28;83669;-63
2021/01/18 09:53:18;;;;;;;17.02;9.40;;;24.40;24.90;;;;;;6100829;28;83528;-63
2021/01/18 09:56:18;;;;;;;17.70;9.32;;;24.40;25.00;;;;;;6096624;28;83890;-63
2021/01/18 09:59:19;;;;;;;13.85;8.52;;;24.60;25.30;;;;;;6105552;28;80626;-63
2021/01/18 10:02:19;;;;;;;15.05;8.32;;;24.70;25.60;;;;;;6098472;28;81217;-64
2021/01/18 10:05:20;;;;;;;18.73;9.77;;;24.90;26.00;;;;;;6101819;28;80905;-63
2021/01/18 10:08:21;;;;;;;16.30;8.77;;;24.90;25.50;;;;;;6098077;28;80715;-61
2021/01/18 10:11:21;;;;;;;15.23;9.13;;;24.90;25.70;;;;;;6098859;28;80900;-62
2021/01/18 10:14:22;;;;;;;17.77;10.68;;;24.90;25.20;;;;;;6102707;28;80797;-62
2021/01/18 10:17:23;;;;;;;18.00;10.45;;;24.90;25.40;;;;;;6096988;28;83136;-63
2021/01/18 10:20:24;;;;;;;17.95;9.95;;;24.90;25.20;;;;;;6097279;28;83134;-63
2021/01/18 10:23:25;;;;;;;17.63;10.20;;;24.90;25.10;;;;;;6115782;28;86220;-64
2021/01/18 10:26:25;;;;;;;20.90;11.30;;;24.90;25.00;;;;;;6102233;28;83695;-64
2021/01/18 10:29:26;;;;;;;17.25;10.18;;;25.00;25.20;;;;;;6099180;28;83841;-66
2021/01/18 10:32:27;;;;;;;20.20;10.57;;;25.00;25.80;;;;;;6097720;28;83201;-64
2021/01/18 10:35:28;;;;;;;23.77;12.32;;;25.10;26.00;;;;;;6099938;28;83457;-63
2021/01/18 10:38:29;;;;;;;18.17;10.38;;;25.10;26.00;;;;;;6093942;28;84286;-64
2021/01/18 10:41:32;;;;;;;20.17;10.48;;;25.10;25.70;;;;;;6099989;28;84170;-63
2021/01/18 10:44:33;;;;;;;16.27;9.55;;;25.10;25.80;;;;;;6095489;28;83433;-63
2021/01/18 10:47:33;;;;;;;21.35;10.70;;;25.10;25.70;;;;;;6100367;28;82699;-62
2021/01/18 10:50:34;;;;;;;19.63;10.77;;;25.10;25.50;;;;;;6094485;28;83332;-63
2021/01/18 10:53:35;;;;;;;18.33;9.95;;;25.10;25.50;;;;;;6101101;28;85058;-61
2021/01/18 10:56:36;;;;;;;20.77;10.02;;;25.10;25.90;;;;;;6103692;28;84585;-63
2021/01/18 10:59:36;;;;;;;20.42;10.52;;;25.10;25.30;;;;;;6101281;28;84301;-63
2021/01/18 11:02:37;;;;;;;23.23;11.75;;;25.20;25.40;;;;;;6089095;28;83418;-63
2021/01/18 11:05:37;;;;;;;17.40;9.93;;;25.20;25.60;;;;;;6101574;28;83132;-62
2021/01/18 11:08:38;;;;;;;19.15;11.52;;;25.30;25.80;;;;;;6102161;28;82940;-63
2021/01/18 11:11:39;;;;;;;19.13;10.77;;;25.30;25.70;;;;;;6098397;28;84158;-62
2021/01/18 11:14:39;;;;;;;21.40;12.13;;;25.30;25.50;;;;;;6091399;28;83612;-63
2021/01/18 11:17:40;;;;;;;20.08;12.07;;;25.30;25.70;;;;;;6112396;28;84297;-62
2021/01/18 11:20:40;;;;;;;23.05;12.77;;;25.30;24.90;;;;;;6097735;28;84884;-62
2021/01/18 11:23:41;;;;;;;20.60;12.65;;;25.20;24.80;;;;;;6098141;28;83851;-62
2021/01/18 11:26:41;;;;;;;26.25;14.65;;;25.20;24.80;;;;;;6100774;28;83091;-62
2021/01/18 11:29:42;;;;;;;28.52;16.27;;;25.20;24.60;;;;;;6099077;28;89625;-62
2021/01/18 11:32:42;;;;;;;34.95;18.30;;;25.20;24.40;;;;;;6097745;28;83063;-62
2021/01/18 11:35:43;;;;;;;27.63;16.60;;;25.20;24.30;;;;;;6087264;28;83460;-62
2021/01/18 11:38:43;;;;;;;36.92;18.15;;;25.20;24.30;;;;;;6096551;28;83334;-62
2021/01/18 11:41:44;;;;;;;35.80;18.77;;;25.10;23.70;;;;;;6100345;28;82972;-63
2021/01/18 11:44:44;;;;;;;33.97;20.02;;;25.10;24.10;;;;;;6095520;28;85283;-62
2021/01/18 11:47:45;;;;;;;37.00;19.80;;;25.10;23.70;;;;;;6097890;28;84674;-62
2021/01/18 11:50:47;;;;;;;42.38;19.75;;;25.10;24.00;;;;;;6097640;28;83531;-63
2021/01/18 11:53:48;;;;;;;39.63;20.63;;;25.10;23.30;;;;;;6084875;28;84357;-63
2021/01/18 11:56:48;;;;;;;43.30;20.85;;;25.00;23.20;;;;;;6089223;28;82834;-63
2021/01/18 11:59:49;;;;;;;40.10;19.52;;;25.00;23.60;;;;;;6094189;28;84695;-64
2021/01/18 12:02:50;;;;;;;33.20;18.52;;;25.00;23.40;;;;;;6099377;28;83286;-65
2021/01/18 12:05:50;;;;;;;37.17;19.25;;;25.00;23.20;;;;;;6096263;28;82995;-65
2021/01/18 12:08:51;;;;;;;39.95;19.95;;;25.00;23.50;;;;;;6101648;28;84040;-65
2021/01/18 12:11:52;;;;;;;42.97;19.73;;;24.90;23.40;;;;;;6101735;28;83220;-64
2021/01/18 12:14:52;;;;;;;35.63;18.25;;;24.90;23.00;;;;;;6097793;28;83121;-64
2021/01/18 12:17:53;;;;;;;37.63;19.35;;;24.90;23.10;;;;;;6115656;28;84125;-64
2021/01/18 12:20:53;;;;;;;37.40;19.35;;;24.90;23.20;;;;;;6103125;28;83297;-64
2021/01/18 12:23:54;;;;;;;38.85;19.80;;;24.90;23.10;;;;;;6102371;28;83315;-65
2021/01/18 12:26:54;;;;;;;33.38;19.45;;;24.80;23.30;;;;;;6096115;28;85069;-65
2021/01/18 12:29:55;;;;;;;37.42;19.10;;;24.80;23.00;;;;;;6100046;28;83501;-66
2021/01/18 12:32:55;;;;;;;36.53;20.00;;;24.80;22.90;;;;;;6103111;28;83497;-65
2021/01/18 12:35:56;;;;;;;37.60;19.50;;;24.80;22.70;;;;;;6101689;28;86418;-64
2021/01/18 12:38:56;;;;;;;37.45;20.42;;;24.70;22.60;;;;;;6103455;28;83946;-63
2021/01/18 12:41:57;;;;;;;35.28;18.67;;;24.60;22.50;;;;;;6092695;28;83598;-64
2021/01/18 12:44:58;;;;;;;34.63;18.52;;;24.60;22.50;;;;;;6101604;28;83476;-63
2021/01/18 12:47:58;;;;;;;35.42;19.75;;;24.60;22.60;;;;;;6101536;28;83484;-64
2021/01/18 12:50:59;;;;;;;37.58;20.63;;;24.50;22.50;;;;;;6099154;28;85098;-64
2021/01/18 12:53:59;;;;;;;38.78;20.23;;;24.50;22.60;;;;;;6114610;28;83979;-63
2021/01/18 12:57:00;;;;;;;36.40;20.30;;;24.40;22.70;;;;;;6094020;28;84155;-63
2021/01/18 13:00:00;;;;;;;39.85;21.40;;;24.40;22.40;;;;;;6100729;28;83817;-63
2021/01/18 13:03:01;;;;;;;35.80;20.27;;;24.40;22.30;;;;;;6088935;28;84170;-63
2021/01/18 13:06:02;;;;;;;40.95;20.50;;;24.40;22.20;;;;;;6101431;28;83284;-63
2021/01/18 13:09:02;;;;;;;36.75;19.85;;;24.40;22.50;;;;;;6095637;28;84540;-62
2021/01/18 13:12:03;;;;;;;36.55;20.77;;;24.40;22.40;;;;;;6090837;28;83689;-63
2021/01/18 13:15:03;;;;;;;43.25;23.02;;;24.40;22.40;;;;;;6093072;28;83576;-63
2021/01/18 13:18:04;;;;;;;36.55;20.13;;;24.40;22.50;;;;;;6096561;28;83927;-64
2021/01/18 13:21:05;;;;;;;39.88;22.50;;;24.30;22.40;;;;;;6097042;28;83338;-63
2021/01/18 13:24:05;;;;;;;38.33;21.88;;;24.30;22.60;;;;;;6100404;28;83103;-63
2021/01/18 13:27:06;;;;;;;38.20;22.10;;;24.20;22.60;;;;;;6102584;28;83043;-63
2021/01/18 13:30:07;;;;;;;38.72;21.15;;;24.20;22.50;;;;;;6097441;28;84128;-63
2021/01/18 13:33:07;;;;;;;43.20;22.80;;;24.10;22.50;;;;;;6094603;28;83613;-65
2021/01/18 13:36:09;;;;;;;44.28;23.45;;;24.10;25.40;;;;;;6117828;28;85087;-63
2021/01/18 13:39:10;;;;;;;40.75;20.85;;;24.00;24.40;;;;;;6101996;28;83240;-63
2021/01/18 13:42:11;;;;;;;49.42;23.73;;;24.00;24.70;;;;;;6100801;28;85342;-66
2021/01/18 13:45:11;;;;;;;45.47;24.10;;;23.90;26.40;;;;;;6091975;28;83333;-62
2021/01/18 13:48:12;;;;;;;41.95;23.52;;;23.90;25.30;;;;;;6091860;28;83244;-63
2021/01/18 13:51:12;;;;;;;43.70;22.85;;;23.90;25.60;;;;;;6100144;28;84226;-64
2021/01/18 13:54:13;;;;;;;42.10;22.08;;;23.80;25.60;;;;;;6093614;28;84012;-65
2021/01/18 13:57:13;;;;;;;44.60;22.95;;;23.80;25.70;;;;;;6098907;28;83654;-67
2021/01/18 14:00:14;;;;;;;41.13;21.70;;;23.70;25.50;;;;;;6091064;28;83836;-66
2021/01/18 14:03:14;;;;;;;43.72;21.58;;;23.70;26.10;;;;;;6075176;28;83611;-64
2021/01/18 14:06:15;;;;;;;42.70;22.67;;;23.70;25.10;;;;;;6100155;28;83273;-64
2021/01/18 14:09:18;;;;;;;45.78;22.95;;;23.70;24.70;;;;;;6102204;28;83984;-64
2021/01/18 14:12:18;;;;;;;48.30;24.73;;;23.70;24.60;;;;;;6099850;28;83545;-64
2021/01/18 14:15:19;;;;;;;50.80;25.65;;;23.60;24.20;;;;;;6074857;28;85252;-64
2021/01/18 14:18:19;;;;;;;45.85;23.42;;;23.60;24.00;;;;;;6099378;28;83173;-63
2021/01/18 14:21:20;;;;;;;48.00;24.45;;;23.60;23.80;;;;;;6101108;28;83378;-66
2021/01/18 14:24:21;;;;;;;44.72;24.85;;;23.50;23.80;;;;;;6100716;28;82967;-65
2021/01/18 14:27:21;;;;;;;45.28;24.08;;;23.50;23.70;;;;;;6084269;28;86030;-64
2021/01/18 14:30:22;;;;;;;47.75;26.17;;;23.40;23.40;;;;;;6099662;28;83610;-64
2021/01/18 14:33:22;;;;;;;45.85;25.17;;;23.40;23.40;;;;;;6090954;28;83234;-64
2021/01/18 14:36:23;;;;;;;44.13;25.60;;;23.40;23.30;;;;;;6101906;28;83274;-64
2021/01/18 14:39:23;;;;;;;49.00;25.55;;;23.40;23.40;;;;;;6082878;28;83521;-65
2021/01/18 14:42:24;;;;;;;48.33;27.20;;;23.30;23.10;;;;;;6098879;28;83175;-64
2021/01/18 14:45:24;;;;;;;42.15;24.05;;;23.30;23.10;;;;;;6060779;28;83116;-65
2021/01/18 14:48:25;;;;;;;51.10;26.70;;;23.30;23.10;;;;;;6097864;28;84389;-64
2021/01/18 14:51:25;;;;;;;47.17;26.05;;;23.30;22.90;;;;;;6095060;28;83237;-63
2021/01/18 14:54:26;;;;;;;51.15;26.75;;;23.20;23.20;;;;;;6099670;28;83145;-63
2021/01/18 14:57:26;;;;;;;52.03;26.10;;;23.20;23.10;;;;;;6109641;28;83714;-62
2021/01/18 15:00:28;;;;;;;51.75;27.40;;;23.20;22.90;;;;;;6099242;28;83523;-63
2021/01/18 15:03:28;;;;;;;51.42;27.70;;;23.10;22.90;;;;;;6095146;28;83860;-63
2021/01/18 15:06:29;;;;;;;48.58;25.38;;;23.10;22.90;;;;;;6098295;28;83274;-64
2021/01/18 15:09:29;;;;;;;49.50;26.92;;;23.00;23.30;;;;;;6098964;28;85734;-64
2021/01/18 15:12:30;;;;;;;49.45;27.35;;;23.00;23.10;;;;;;6097253;28;83675;-63
2021/01/18 15:15:31;;;;;;;51.85;27.88;;;23.00;23.30;;;;;;6084895;28;83282;-64
2021/01/18 15:18:31;;;;;;;50.35;26.50;;;22.90;23.40;;;;;;6090868;28;83430;-63